Columbia Gorge Regional the Dalles Municipal Airport The Dalles US
ICAO: KDLS
IATA: DLS
Category: Medium
Scheduled Services: No

Elevation: 247 ft
TransAlt. 18000 ft.

Airport Communications:
ASOS:135.175
SEATTLE CNTR:119.65
SEATTLE RDO:122.65
CTAF/UNICOM:123

KDLS Zoom In..

If you have problems with the map follow the link
https://www.worldairports.se/pages/airport.php?
ICAO=KDLS

Runways:

(A) RW 07 length 4647 ft width 100 ft
---- / hdg 69

(B) RW 13 length 5097 ft width 100 ft
---- / hdg 126

(C) RW 25 length 4647 ft width 100 ft
ILS 109.35 / hdg 249

(D) RW 31 length 5097 ft width 100 ft
---- / hdg 306

Location; KDLS
Day. 12 / Time. 22.53 Zulu
* Altimeter: 29.99
* Temperature: 06° c. 42.8°f.
* Wind from: 100° Speed 05 kn.
Dewpoint: 04° c.
Visibility: 6 Statute Miles.
Clouds: Few 3000 ft.
Clouds: Scattered 4400 ft.
Clouds: Overcast 5500 ft.
Conditions: Light Rain.Conditions: Mist.

KDLS 122253Z AUTO 10005KT 6SM -RA BR FEW030 SCT044 OVC055 06/04 A2999 RMK AO2 LTG DSNT E RAB2159 SLP156 P0008 T00560039


Wind From 100°
Speed 05 kn.

 
 
jpsmedia worldairports.se 2019   terms of use